Time;durP1;ratioP1;P1;durP2;ratioP2;P2;SDS_P1;SDS_P2;PMS_P1;PMS_P2;Temp;Humidity;BMP_temperature;BMP_pressure;BME280_temperature;BME280_humidity;BME280_pressure;Samples;Min_cycle;Max_cycle;Signal;HPM_P1;HPM_P2
2022/09/14 00:59:47;;;;;;;11.30;2.15;;;17.80;58.90;;;;;;4108191;28;20063;-40
2022/09/14 01:02:13;;;;;;;5.90;1.23;;;17.80;58.70;;;;;;4128753;28;20516;-40
2022/09/14 01:04:36;;;;;;;4.45;1.20;;;17.80;58.80;;;;;;4127651;28;20192;-42
2022/09/14 01:07:17;;;;;;;7.17;1.30;;;17.80;58.70;;;;;;4129558;28;20117;-40
2022/09/14 01:09:50;;;;;;;9.88;2.00;;;17.80;58.70;;;;;;4129497;28;20037;-44
2022/09/14 01:12:19;;;;;;;4.47;1.50;;;17.80;58.70;;;;;;4135533;28;20537;-41
2022/09/14 01:15:06;;;;;;;4.20;1.23;;;17.80;59.00;;;;;;4135550;28;20449;-39
2022/09/14 01:17:45;;;;;;;3.88;0.98;;;17.80;59.00;;;;;;4132143;28;20044;-42
2022/09/14 01:20:11;;;;;;;4.72;0.88;;;17.80;59.10;;;;;;4136200;28;20533;-40
2022/09/14 01:23:00;;;;;;;1.30;0.75;;;17.80;59.10;;;;;;4133985;28;20050;-42
2022/09/14 01:25:56;;;;;;;5.93;1.67;;;17.80;59.20;;;;;;4131876;28;20030;-42
2022/09/14 01:28:40;;;;;;;4.85;1.23;;;17.80;59.20;;;;;;4132195;28;20412;-43
2022/09/14 01:31:09;;;;;;;6.07;1.48;;;17.80;59.30;;;;;;4131951;28;20041;-47
2022/09/14 01:33:45;;;;;;;8.55;1.40;;;17.90;59.50;;;;;;4132323;28;20033;-44
2022/09/14 01:36:11;;;;;;;3.65;0.90;;;17.80;59.50;;;;;;4129736;28;20053;-44
2022/09/14 01:38:39;;;;;;;9.75;1.27;;;17.90;59.50;;;;;;4134369;28;20041;-44
2022/09/14 01:41:06;;;;;;;5.97;1.50;;;17.90;59.80;;;;;;4126355;28;20063;-41
2022/09/14 01:43:32;;;;;;;6.45;1.27;;;17.90;60.10;;;;;;4131233;28;20052;-43
2022/09/14 01:45:59;;;;;;;11.20;1.98;;;18.00;59.70;;;;;;4137729;28;20072;-42
2022/09/14 01:48:36;;;;;;;5.63;1.00;;;18.00;59.20;;;;;;4127733;28;20046;-41
2022/09/14 01:51:04;;;;;;;7.60;1.65;;;18.00;58.40;;;;;;4125136;28;20042;-41
2022/09/14 01:53:33;;;;;;;6.13;1.10;;;18.10;58.30;;;;;;4111339;28;20109;-42
2022/09/14 01:56:19;;;;;;;6.78;1.27;;;18.10;58.40;;;;;;4130381;28;20046;-47
2022/09/14 01:58:48;;;;;;;8.32;1.58;;;18.10;58.50;;;;;;4130387;28;20049;-47
2022/09/14 02:01:17;;;;;;;6.63;1.45;;;18.20;58.50;;;;;;4119720;28;20042;-47
2022/09/14 02:03:58;;;;;;;8.50;1.20;;;18.30;58.60;;;;;;4118239;28;20042;-50
2022/09/14 02:06:36;;;;;;;4.72;0.95;;;18.30;58.60;;;;;;4121693;28;20129;-43
2022/09/14 02:08:59;;;;;;;4.50;0.80;;;18.30;58.60;;;;;;4118502;28;20061;-43
2022/09/14 02:11:22;;;;;;;4.55;0.90;;;18.30;58.70;;;;;;4114799;28;20070;-42
2022/09/14 02:13:45;;;;;;;3.38;0.90;;;18.30;58.50;;;;;;4115667;28;20129;-43
2022/09/14 02:16:07;;;;;;;2.25;0.90;;;18.30;58.30;;;;;;4107472;28;20034;-41
2022/09/14 02:18:31;;;;;;;1.63;0.80;;;18.30;58.20;;;;;;4112259;28;20154;-40
2022/09/14 02:20:59;;;;;;;6.97;0.88;;;18.30;58.00;;;;;;4120341;28;20353;-40
2022/09/14 02:23:22;;;;;;;1.75;0.70;;;18.30;58.00;;;;;;4120915;28;20113;-41
2022/09/14 02:25:46;;;;;;;2.58;0.77;;;18.30;57.90;;;;;;4115361;28;20326;-41
2022/09/14 02:28:08;;;;;;;2.53;0.70;;;18.30;57.80;;;;;;4106679;28;20120;-40
2022/09/14 02:30:41;;;;;;;1.30;0.70;;;18.30;57.70;;;;;;4117168;28;20046;-43
2022/09/14 02:33:18;;;;;;;0.60;0.43;;;18.40;57.60;;;;;;4115045;28;20042;-41
2022/09/14 02:35:54;;;;;;;0.50;0.45;;;18.40;57.30;;;;;;4117204;28;20045;-41
2022/09/14 02:38:37;;;;;;;1.20;0.68;;;18.40;57.10;;;;;;4116988;28;20038;-39
2022/09/14 02:41:12;;;;;;;1.23;0.55;;;18.40;57.00;;;;;;4101415;28;20146;-41
2022/09/14 02:44:04;;;;;;;0.52;0.40;;;18.40;57.00;;;;;;4122791;28;20225;-40
2022/09/14 02:46:40;;;;;;;0.65;0.50;;;18.40;57.00;;;;;;4117796;28;20180;-42
2022/09/14 02:49:41;;;;;;;0.85;0.50;;;18.40;56.80;;;;;;4120573;28;20042;-46
2022/09/14 02:52:31;;;;;;;1.23;0.70;;;18.40;56.80;;;;;;4113894;28;20129;-44
2022/09/14 02:55:02;;;;;;;9.40;0.82;;;18.40;56.30;;;;;;4116085;28;20051;-41
2022/09/14 02:57:25;;;;;;;2.42;0.85;;;18.40;57.20;;;;;;4118304;28;20587;-43
2022/09/14 02:59:48;;;;;;;0.50;0.50;;;18.40;57.90;;;;;;4116168;28;20054;-41
2022/09/14 03:02:10;;;;;;;2.10;0.60;;;18.50;58.10;;;;;;4111298;28;20046;-44
2022/09/14 03:04:33;;;;;;;1.95;0.70;;;18.50;58.30;;;;;;4119348;28;20035;-42
2022/09/14 03:06:56;;;;;;;3.60;0.70;;;18.50;58.80;;;;;;4115481;28;20134;-43
2022/09/14 03:09:18;;;;;;;2.58;0.80;;;18.60;59.30;;;;;;4116084;28;20076;-44
2022/09/14 03:11:41;;;;;;;2.38;0.90;;;18.60;59.80;;;;;;4116792;28;20485;-42
2022/09/14 03:14:04;;;;;;;8.77;1.02;;;18.70;60.00;;;;;;4118198;28;20030;-40
2022/09/14 03:16:26;;;;;;;4.68;0.68;;;18.70;60.20;;;;;;4116821;28;20121;-41
2022/09/14 03:18:49;;;;;;;2.30;0.70;;;18.70;60.00;;;;;;4115190;28;20038;-44
2022/09/14 03:21:15;;;;;;;1.02;0.73;;;18.80;59.80;;;;;;4117576;28;20042;-43
2022/09/14 03:23:43;;;;;;;1.77;0.70;;;18.80;59.70;;;;;;4113702;28;20054;-43
2022/09/14 03:26:11;;;;;;;2.63;0.68;;;18.80;59.60;;;;;;4116442;28;20039;-44
2022/09/14 03:28:33;;;;;;;3.40;0.50;;;18.90;59.50;;;;;;4117110;28;20125;-45
2022/09/14 03:30:59;;;;;;;0.85;0.68;;;18.90;59.50;;;;;;4114968;28;20445;-51
2022/09/14 03:33:22;;;;;;;3.55;1.00;;;18.90;59.30;;;;;;4116423;28;20110;-43
2022/09/14 03:35:44;;;;;;;2.30;0.55;;;19.00;58.60;;;;;;4112992;28;20042;-48
2022/09/14 03:38:07;;;;;;;2.47;0.50;;;19.00;58.30;;;;;;4116416;28;20489;-47
2022/09/14 03:40:30;;;;;;;0.88;0.40;;;19.00;58.20;;;;;;4119241;28;20035;-47
2022/09/14 03:42:52;;;;;;;0.68;0.50;;;19.10;58.20;;;;;;4120523;28;20054;-43
2022/09/14 03:45:16;;;;;;;1.38;0.57;;;19.10;58.10;;;;;;4112000;28;20077;-42
2022/09/14 03:47:39;;;;;;;1.85;0.50;;;19.10;57.90;;;;;;4114327;28;20122;-41
2022/09/14 03:50:02;;;;;;;2.08;0.70;;;19.10;58.30;;;;;;4116313;28;20034;-41
2022/09/14 03:52:25;;;;;;;3.35;0.55;;;19.10;57.80;;;;;;4119556;28;20514;-43
2022/09/14 03:54:47;;;;;;;0.38;0.38;;;19.10;57.70;;;;;;4113519;28;20045;-43
2022/09/14 03:57:10;;;;;;;3.65;0.75;;;19.10;57.50;;;;;;4108225;28;20046;-43
2022/09/14 03:59:33;;;;;;;2.28;0.70;;;19.10;57.40;;;;;;4115052;28;20136;-43
2022/09/14 04:01:56;;;;;;;7.87;0.93;;;19.10;57.70;;;;;;4113785;28;20054;-45
2022/09/14 04:04:18;;;;;;;2.50;0.55;;;19.10;58.00;;;;;;4113220;28;20030;-39
2022/09/14 04:06:41;;;;;;;0.77;0.50;;;19.10;58.10;;;;;;4116657;28;20593;-44
2022/09/14 04:09:04;;;;;;;4.03;0.88;;;19.20;58.10;;;;;;4117873;28;20066;-44
2022/09/14 04:11:29;;;;;;;12.13;1.20;;;19.20;57.90;;;;;;4117966;28;20113;-46
2022/09/14 04:13:53;;;;;;;1.27;0.65;;;19.30;57.70;;;;;;4090119;28;20404;-40
2022/09/14 04:16:17;;;;;;;0.50;0.50;;;19.40;57.50;;;;;;4111982;28;20052;-38
2022/09/14 04:18:40;;;;;;;0.93;0.65;;;19.40;57.20;;;;;;4106996;28;20052;-43
2022/09/14 04:21:05;;;;;;;2.10;0.70;;;19.50;57.10;;;;;;4103934;28;20038;-41
2022/09/14 04:23:29;;;;;;;1.35;0.30;;;19.60;56.90;;;;;;4117147;28;20050;-46
2022/09/14 04:25:52;;;;;;;1.90;0.75;;;19.60;56.80;;;;;;4115120;28;20486;-39
2022/09/14 04:28:15;;;;;;;0.40;0.40;;;19.70;56.70;;;;;;4111183;28;20189;-41
2022/09/14 04:30:37;;;;;;;0.57;0.57;;;19.80;56.60;;;;;;4107519;28;20039;-41
2022/09/14 04:33:00;;;;;;;0.75;0.43;;;19.80;56.40;;;;;;4118390;28;20042;-42
2022/09/14 04:35:22;;;;;;;1.13;0.50;;;19.90;56.30;;;;;;4112198;28;20038;-38
2022/09/14 04:37:45;;;;;;;0.50;0.50;;;20.00;56.20;;;;;;4112497;28;20054;-41
2022/09/14 04:40:08;;;;;;;0.60;0.60;;;20.10;56.10;;;;;;4111773;28;20104;-37
2022/09/14 04:42:30;;;;;;;3.03;0.85;;;20.20;56.00;;;;;;4107055;28;20080;-42
2022/09/14 04:44:53;;;;;;;1.23;0.55;;;20.30;55.60;;;;;;4104197;28;20473;-42
2022/09/14 04:47:16;;;;;;;2.28;0.60;;;20.40;55.60;;;;;;4113101;28;20034;-45
2022/09/14 04:49:38;;;;;;;4.78;0.70;;;20.50;55.40;;;;;;4109448;28;20042;-42
2022/09/14 04:52:01;;;;;;;1.50;0.40;;;20.60;55.20;;;;;;4107026;28;20047;-40
2022/09/14 04:54:23;;;;;;;2.47;0.80;;;20.70;55.10;;;;;;4110128;28;20048;-38
2022/09/14 04:56:46;;;;;;;2.38;0.73;;;20.70;54.90;;;;;;4113890;28;20074;-41
2022/09/14 04:59:10;;;;;;;3.42;1.05;;;20.70;55.10;;;;;;4113077;28;20860;-38
2022/09/14 05:01:36;;;;;;;1.10;0.77;;;20.70;55.30;;;;;;4107092;28;20137;-43
2022/09/14 05:03:59;;;;;;;3.50;1.30;;;20.90;55.50;;;;;;4103035;28;20048;-38
2022/09/14 05:06:25;;;;;;;3.35;1.48;;;20.90;55.50;;;;;;4112084;28;20050;-38
2022/09/14 05:08:48;;;;;;;2.92;1.48;;;20.90;56.20;;;;;;4113192;28;20033;-37
2022/09/14 05:11:14;;;;;;;2.47;1.10;;;20.90;55.50;;;;;;4113245;28;20046;-39
2022/09/14 05:13:37;;;;;;;1.90;1.25;;;20.90;55.50;;;;;;4114869;28;20331;-39
2022/09/14 05:16:14;;;;;;;3.05;1.50;;;21.00;55.40;;;;;;4114951;28;20077;-37
2022/09/14 05:18:37;;;;;;;4.47;1.80;;;21.00;55.20;;;;;;4117075;28;20030;-41
2022/09/14 05:21:07;;;;;;;2.30;1.70;;;20.90;55.20;;;;;;4112652;28;20038;-39
2022/09/14 05:23:30;;;;;;;3.20;1.80;;;20.90;55.60;;;;;;4106104;28;20046;-40
2022/09/14 05:25:53;;;;;;;4.28;2.05;;;20.90;55.80;;;;;;4116504;28;20125;-39
2022/09/14 05:28:16;;;;;;;1.97;1.47;;;20.90;55.70;;;;;;4114368;28;20049;-38
2022/09/14 05:30:41;;;;;;;2.70;2.00;;;20.90;55.80;;;;;;4111164;28;20034;-39
2022/09/14 05:33:04;;;;;;;3.28;2.13;;;20.90;55.80;;;;;;4108060;28;20046;-38
2022/09/14 05:35:26;;;;;;;2.72;1.90;;;20.90;55.90;;;;;;4111684;28;20530;-37
2022/09/14 05:37:49;;;;;;;4.13;2.03;;;20.90;55.90;;;;;;4110611;28;20042;-37
2022/09/14 05:40:12;;;;;;;2.67;2.10;;;20.80;56.00;;;;;;4104628;28;20034;-39
2022/09/14 05:42:35;;;;;;;2.33;1.70;;;20.80;56.00;;;;;;4110776;28;20081;-42
2022/09/14 05:44:57;;;;;;;4.05;2.53;;;20.80;56.00;;;;;;4112159;28;20097;-37
2022/09/14 05:47:20;;;;;;;11.45;3.83;;;20.80;55.40;;;;;;4111408;28;20045;-42
2022/09/14 05:49:42;;;;;;;28.45;3.45;;;20.80;55.30;;;;;;4112079;28;20130;-43
2022/09/14 05:52:05;;;;;;;13.02;3.25;;;20.80;55.50;;;;;;4103429;28;20043;-43
2022/09/14 05:54:28;;;;;;;9.15;2.88;;;20.80;55.40;;;;;;4112276;28;20526;-41
2022/09/14 05:56:50;;;;;;;10.45;2.58;;;20.80;55.20;;;;;;4115693;28;20499;-43
2022/09/14 05:59:13;;;;;;;8.30;2.20;;;20.90;55.30;;;;;;4106872;28;20043;-41
2022/09/14 06:01:36;;;;;;;9.95;2.88;;;20.90;55.10;;;;;;4109785;28;20604;-39
2022/09/14 06:04:01;;;;;;;4.20;1.98;;;21.00;55.00;;;;;;4107735;28;20150;-41
2022/09/14 06:06:23;;;;;;;6.18;1.83;;;21.00;55.10;;;;;;4107407;28;20074;-40
2022/09/14 06:08:51;;;;;;;4.18;1.73;;;21.10;55.00;;;;;;4112665;28;20030;-42
2022/09/14 06:11:16;;;;;;;5.65;1.70;;;21.10;55.00;;;;;;4109455;28;20483;-39
2022/09/14 06:13:39;;;;;;;6.22;1.80;;;21.10;55.50;;;;;;4114465;28;20034;-40
2022/09/14 06:16:07;;;;;;;3.40;1.83;;;21.20;55.40;;;;;;4110631;28;20039;-43
2022/09/14 06:18:31;;;;;;;5.50;2.30;;;21.20;55.50;;;;;;4110342;28;20035;-44
2022/09/14 06:20:54;;;;;;;8.30;1.75;;;21.20;55.50;;;;;;4107710;28;20042;-39
2022/09/14 06:23:17;;;;;;;4.03;1.65;;;21.20;55.60;;;;;;4108004;28;20122;-39
2022/09/14 06:25:39;;;;;;;5.63;1.55;;;21.30;55.20;;;;;;4109809;28;20041;-38
2022/09/14 06:28:02;;;;;;;4.78;1.42;;;21.30;55.50;;;;;;4109161;28;20049;-38
2022/09/14 06:30:25;;;;;;;9.88;1.88;;;21.30;55.50;;;;;;4113318;28;20699;-39
2022/09/14 06:32:47;;;;;;;5.07;1.65;;;21.30;55.40;;;;;;4107252;28;20026;-41
2022/09/14 06:35:10;;;;;;;13.23;1.45;;;21.30;55.40;;;;;;4108866;28;20042;-38
2022/09/14 06:37:33;;;;;;;3.58;1.08;;;21.40;55.30;;;;;;4113387;28;20039;-39
2022/09/14 06:39:55;;;;;;;8.93;1.20;;;21.40;55.10;;;;;;4107979;28;20041;-38
2022/09/14 06:42:18;;;;;;;2.22;1.00;;;21.40;55.10;;;;;;4103086;28;20407;-42
2022/09/14 06:44:40;;;;;;;5.35;1.25;;;21.40;55.10;;;;;;4111591;28;20403;-38
2022/09/14 06:47:03;;;;;;;3.53;1.10;;;21.50;55.20;;;;;;4102844;28;20470;-39
2022/09/14 06:49:26;;;;;;;5.90;1.38;;;21.50;55.00;;;;;;4094663;28;20477;-40
2022/09/14 06:51:49;;;;;;;2.53;1.27;;;21.50;55.00;;;;;;4115095;28;20053;-39
2022/09/14 06:54:16;;;;;;;3.05;0.90;;;21.50;55.00;;;;;;4113593;28;20050;-39
2022/09/14 06:56:40;;;;;;;2.03;0.75;;;21.50;55.00;;;;;;4108461;28;20046;-37
2022/09/14 06:59:03;;;;;;;;;;;21.50;54.90;;;;;;4113186;28;20413;-40
2022/09/14 07:01:26;;;;;;;1.65;0.75;;;21.50;55.00;;;;;;4108234;28;20107;-39
2022/09/14 07:03:51;;;;;;;3.33;0.88;;;21.50;54.70;;;;;;4113402;28;20046;-43
2022/09/14 07:06:25;;;;;;;1.45;0.82;;;21.50;55.10;;;;;;4105101;28;20511;-38
2022/09/14 07:08:49;;;;;;;1.13;0.60;;;21.60;55.00;;;;;;4118089;28;20043;-38
2022/09/14 07:11:14;;;;;;;0.82;0.52;;;21.60;55.40;;;;;;4111188;28;20034;-39
2022/09/14 07:13:37;;;;;;;3.75;0.90;;;21.60;55.20;;;;;;4116974;28;20042;-38
2022/09/14 07:16:00;;;;;;;0.95;0.50;;;21.60;55.10;;;;;;4112512;28;20041;-39
2022/09/14 07:18:27;;;;;;;1.17;0.80;;;21.50;55.10;;;;;;4098433;28;20122;-39
2022/09/14 07:20:50;;;;;;;3.20;0.90;;;21.50;54.10;;;;;;4120896;28;20039;-39
2022/09/14 07:23:13;;;;;;;1.77;0.90;;;21.40;52.30;;;;;;4121979;28;20050;-43
2022/09/14 07:25:35;;;;;;;1.67;1.10;;;21.40;52.10;;;;;;4120167;28;20031;-42
2022/09/14 07:28:00;;;;;;;3.42;1.10;;;21.30;52.10;;;;;;4121299;28;20116;-41
2022/09/14 07:30:23;;;;;;;1.73;1.00;;;21.20;52.10;;;;;;4113111;28;20394;-40
2022/09/14 07:32:46;;;;;;;1.73;1.00;;;21.10;52.30;;;;;;4118284;28;20034;-37
2022/09/14 07:35:09;;;;;;;1.83;1.10;;;21.00;52.40;;;;;;4118008;28;20042;-38
2022/09/14 07:37:31;;;;;;;1.75;1.00;;;21.00;52.60;;;;;;4119918;28;20041;-38
2022/09/14 07:39:56;;;;;;;1.35;0.75;;;20.90;52.90;;;;;;4110703;28;20387;-41
2022/09/14 07:42:18;;;;;;;2.78;0.80;;;20.90;53.40;;;;;;4112824;28;20046;-38
2022/09/14 07:44:41;;;;;;;0.82;0.60;;;20.80;53.40;;;;;;4112243;28;20038;-37
2022/09/14 07:47:04;;;;;;;1.20;0.80;;;20.80;53.60;;;;;;4111524;28;20355;-40
2022/09/14 07:49:26;;;;;;;2.88;0.70;;;20.80;53.90;;;;;;4114529;28;20622;-40
2022/09/14 07:51:49;;;;;;;2.10;0.80;;;20.80;54.30;;;;;;4111899;28;20161;-39
2022/09/14 07:54:14;;;;;;;1.15;0.95;;;20.80;54.60;;;;;;4113020;28;20046;-38
2022/09/14 07:56:36;;;;;;;1.75;0.52;;;20.80;54.70;;;;;;4110909;28;20035;-41
2022/09/14 07:59:00;;;;;;;1.38;0.60;;;20.80;55.00;;;;;;4107992;28;20259;-39
2022/09/14 08:01:22;;;;;;;7.00;1.08;;;20.80;55.30;;;;;;4110696;28;20417;-41
2022/09/14 08:03:47;;;;;;;3.45;0.90;;;20.80;55.10;;;;;;4106362;28;20034;-39
2022/09/14 08:06:15;;;;;;;7.18;0.90;;;20.80;55.20;;;;;;4111330;28;20038;-40
2022/09/14 08:08:43;;;;;;;2.92;0.73;;;20.80;55.20;;;;;;4113152;28;20034;-38
2022/09/14 08:11:13;;;;;;;3.35;0.60;;;20.80;55.40;;;;;;4096359;28;20061;-39
2022/09/14 08:13:37;;;;;;;5.22;0.80;;;20.80;55.40;;;;;;4109802;28;20034;-38
2022/09/14 08:16:00;;;;;;;;;;;20.80;55.60;;;;;;4113017;28;20490;-39
2022/09/14 08:18:23;;;;;;;2.03;0.73;;;20.80;55.70;;;;;;4113889;28;20356;-42
2022/09/14 08:20:46;;;;;;;23.50;2.10;;;20.70;55.90;;;;;;4117643;28;20299;-40
2022/09/14 08:23:09;;;;;;;4.57;1.02;;;20.70;56.40;;;;;;4115243;28;20370;-40
2022/09/14 08:25:32;;;;;;;6.93;1.40;;;20.70;56.20;;;;;;4113063;28;20066;-41
2022/09/14 08:27:55;;;;;;;9.45;1.15;;;20.70;56.20;;;;;;4115096;28;20039;-41
2022/09/14 08:30:17;;;;;;;3.83;1.10;;;20.70;56.30;;;;;;4116064;28;20046;-40
2022/09/14 08:32:40;;;;;;;3.75;0.98;;;20.70;56.30;;;;;;4113487;28;20097;-45
2022/09/14 08:35:03;;;;;;;7.25;1.35;;;20.60;56.40;;;;;;4113396;28;20105;-41
2022/09/14 08:37:26;;;;;;;2.38;0.98;;;20.60;56.50;;;;;;4114490;28;20121;-41
2022/09/14 08:39:48;;;;;;;3.15;0.82;;;20.60;56.40;;;;;;4117195;28;20050;-39
2022/09/14 08:42:18;;;;;;;2.95;0.70;;;20.60;56.40;;;;;;4114289;28;20441;-42
2022/09/14 08:44:53;;;;;;;6.13;0.90;;;20.60;56.50;;;;;;4113738;28;20062;-41
2022/09/14 08:47:31;;;;;;;;;;;20.60;56.50;;;;;;4097250;28;20051;-40
2022/09/14 08:49:59;;;;;;;1.95;0.70;;;20.50;56.50;;;;;;4112516;28;20349;-40
2022/09/14 08:52:30;;;;;;;3.80;0.85;;;20.50;56.70;;;;;;4113442;28;20117;-41
2022/09/14 08:54:56;;;;;;;4.68;1.08;;;20.50;56.80;;;;;;4111125;28;20066;-41
2022/09/14 08:57:26;;;;;;;1.13;0.80;;;20.50;57.40;;;;;;4113154;28;20049;-41
2022/09/14 09:00:09;;;;;;;1.20;0.60;;;20.40;56.80;;;;;;4113144;28;20446;-41
2022/09/14 09:02:42;;;;;;;0.85;0.45;;;20.40;56.90;;;;;;4112176;28;20458;-39
2022/09/14 09:05:52;;;;;;;5.33;0.80;;;20.40;57.00;;;;;;4110045;28;20035;-39
2022/09/14 09:08:46;;;;;;;1.88;0.50;;;20.40;57.00;;;;;;4089426;28;20041;-39
2022/09/14 09:11:17;;;;;;;1.90;0.68;;;20.40;57.10;;;;;;4111776;28;20121;-38
2022/09/14 09:13:40;;;;;;;2.00;0.57;;;20.30;57.10;;;;;;4112818;28;20034;-38
2022/09/14 09:16:08;;;;;;;0.57;0.50;;;20.40;57.20;;;;;;4112357;28;20498;-38
2022/09/14 09:18:36;;;;;;;5.00;1.15;;;20.30;57.20;;;;;;4109985;28;20058;-39
2022/09/14 09:21:41;;;;;;;3.92;0.80;;;20.30;57.40;;;;;;4113487;28;20058;-38
2022/09/14 09:24:25;;;;;;;1.30;0.70;;;20.30;57.50;;;;;;4040249;29;20159;-39
2022/09/14 09:26:48;;;;;;;7.53;1.80;;;20.30;57.20;;;;;;4106808;28;20441;-40
2022/09/14 09:29:11;;;;;;;4.85;1.10;;;20.30;55.90;;;;;;4109845;28;20047;-43
2022/09/14 09:31:41;;;;;;;3.22;1.50;;;20.30;55.60;;;;;;4113103;28;20049;-42
2022/09/14 09:34:03;;;;;;;3.30;1.60;;;20.20;55.20;;;;;;4112550;28;20038;-38
2022/09/14 09:36:30;;;;;;;3.95;1.48;;;20.20;55.20;;;;;;4110406;28;20066;-41
2022/09/14 09:38:53;;;;;;;3.75;1.88;;;20.20;55.20;;;;;;4110317;28;20493;-41
2022/09/14 09:41:21;;;;;;;2.67;1.58;;;20.10;55.30;;;;;;4107555;28;20542;-42
2022/09/14 09:44:09;;;;;;;4.07;1.90;;;20.00;55.30;;;;;;4111191;28;20035;-39
2022/09/14 09:46:34;;;;;;;2.60;1.77;;;20.00;55.40;;;;;;4111523;28;20083;-39
2022/09/14 09:48:56;;;;;;;3.75;2.13;;;20.00;55.40;;;;;;4112481;28;20042;-39
2022/09/14 09:51:26;;;;;;;3.13;1.60;;;19.90;55.30;;;;;;4110642;28;20042;-39
2022/09/14 09:53:53;;;;;;;3.28;1.70;;;19.90;55.90;;;;;;4113084;28;20030;-42
2022/09/14 09:56:23;;;;;;;3.05;1.55;;;19.90;55.30;;;;;;4110839;28;20054;-40
2022/09/14 09:58:50;;;;;;;3.78;1.50;;;19.80;55.30;;;;;;4108447;28;20518;-39
2022/09/14 10:01:25;;;;;;;3.40;1.70;;;19.80;55.30;;;;;;4109834;28;20466;-40
2022/09/14 10:04:27;;;;;;;3.30;1.50;;;19.80;55.30;;;;;;4112494;28;20485;-42
2022/09/14 10:06:56;;;;;;;5.35;1.80;;;19.70;55.40;;;;;;4083726;28;20497;-40
2022/09/14 10:09:22;;;;;;;3.20;1.60;;;19.70;55.20;;;;;;4108648;28;20410;-37
2022/09/14 10:11:46;;;;;;;3.22;1.35;;;19.70;55.20;;;;;;4111287;28;20505;-40
2022/09/14 10:14:46;;;;;;;3.08;1.88;;;19.60;55.20;;;;;;4107463;28;20110;-43
2022/09/14 10:17:21;;;;;;;3.30;1.45;;;19.60;55.40;;;;;;4060073;29;20515;-43
2022/09/14 10:19:48;;;;;;;2.70;1.45;;;19.60;55.30;;;;;;4113450;28;20038;-40
2022/09/14 10:22:30;;;;;;;2.67;1.80;;;19.60;55.30;;;;;;4107676;28;20042;-42
2022/09/14 10:25:21;;;;;;;3.17;1.75;;;19.50;55.30;;;;;;4112742;28;20601;-40
2022/09/14 10:27:55;;;;;;;3.60;1.48;;;19.50;55.30;;;;;;4111391;28;20034;-41
2022/09/14 10:30:18;;;;;;;;;;;19.50;55.40;;;;;;4112945;28;20483;-41
2022/09/14 10:32:48;;;;;;;2.58;1.45;;;19.40;55.30;;;;;;4110325;28;19920;-46
2022/09/14 10:35:15;;;;;;;4.28;1.50;;;19.40;55.40;;;;;;4109673;28;20061;-39
2022/09/14 10:37:57;;;;;;;1.67;1.25;;;19.40;55.40;;;;;;4113841;28;20085;-41
2022/09/14 10:40:26;;;;;;;3.33;1.52;;;19.40;55.40;;;;;;4110600;28;20038;-41
2022/09/14 10:43:13;;;;;;;2.45;1.75;;;19.40;55.50;;;;;;4112882;28;20081;-40
2022/09/14 10:45:46;;;;;;;3.20;1.58;;;19.30;55.40;;;;;;4109578;28;20414;-38
2022/09/14 10:48:32;;;;;;;3.78;1.40;;;19.30;55.50;;;;;;4117187;28;20042;-40
2022/09/14 10:51:20;;;;;;;3.35;1.40;;;19.30;55.50;;;;;;4100469;28;20039;-43
2022/09/14 10:53:53;;;;;;;2.65;1.38;;;19.30;55.60;;;;;;4117055;28;20077;-40
2022/09/14 10:56:25;;;;;;;1.60;1.40;;;19.30;55.60;;;;;;4110201;28;20045;-44
2022/09/14 10:59:02;;;;;;;2.90;1.60;;;19.20;55.90;;;;;;4115528;28;20036;-43
2022/09/14 11:01:43;;;;;;;2.58;1.42;;;19.20;56.10;;;;;;4117423;28;20050;-41
2022/09/14 11:04:37;;;;;;;3.35;1.40;;;19.20;56.20;;;;;;4114842;28;20561;-40
2022/09/14 11:07:17;;;;;;;2.40;1.40;;;19.20;56.50;;;;;;4112380;28;20046;-45
2022/09/14 11:10:23;;;;;;;2.03;1.27;;;19.20;56.60;;;;;;4108669;28;20072;-41
2022/09/14 11:12:45;;;;;;;7.38;1.55;;;19.20;56.70;;;;;;4117973;28;20038;-46
2022/09/14 11:15:34;;;;;;;8.48;1.95;;;19.20;56.90;;;;;;4120876;28;20101;-44
2022/09/14 11:18:05;;;;;;;3.05;1.20;;;19.20;57.20;;;;;;4116755;28;20966;-44
2022/09/14 11:20:41;;;;;;;4.35;1.40;;;19.20;57.30;;;;;;4112742;28;20054;-45
2022/09/14 11:23:21;;;;;;;5.63;1.40;;;19.20;57.60;;;;;;4099046;28;20066;-43
2022/09/14 11:26:07;;;;;;;4.15;1.20;;;19.20;57.90;;;;;;4116075;28;20050;-41
2022/09/14 11:28:36;;;;;;;6.00;1.23;;;19.20;57.90;;;;;;4117993;28;20050;-41
2022/09/14 11:31:11;;;;;;;2.83;1.30;;;19.20;58.10;;;;;;4121149;28;20462;-44
2022/09/14 11:34:05;;;;;;;4.07;1.10;;;19.20;58.20;;;;;;4121236;28;20149;-42
2022/09/14 11:36:45;;;;;;;1.10;0.87;;;19.20;58.30;;;;;;4103831;28;20057;-44
2022/09/14 11:39:21;;;;;;;3.33;1.27;;;19.20;58.40;;;;;;4118068;28;20050;-45
2022/09/14 11:42:03;;;;;;;1.58;1.10;;;19.20;59.30;;;;;;4117495;28;20502;-40
2022/09/14 11:44:39;;;;;;;3.25;1.15;;;19.20;58.80;;;;;;4119902;28;20045;-44
2022/09/14 11:47:34;;;;;;;7.72;1.52;;;19.20;58.90;;;;;;4116775;28;20129;-39
2022/09/14 11:50:22;;;;;;;3.50;0.60;;;19.20;58.90;;;;;;4120344;28;20108;-42
2022/09/14 11:52:44;;;;;;;1.55;0.80;;;19.20;59.00;;;;;;4118725;28;20237;-43
2022/09/14 11:55:16;;;;;;;1.92;1.00;;;19.20;59.10;;;;;;4117681;28;20133;-45
2022/09/14 11:57:38;;;;;;;2.22;0.75;;;19.20;59.20;;;;;;4119672;28;20034;-42
2022/09/14 12:00:32;;;;;;;3.30;0.93;;;19.20;59.20;;;;;;4119315;28;20041;-46
2022/09/14 12:03:17;;;;;;;1.42;0.80;;;19.20;59.20;;;;;;4096893;28;20350;-46
2022/09/14 12:05:43;;;;;;;1.58;0.77;;;19.20;59.30;;;;;;4114393;28;20035;-49
2022/09/14 12:08:24;;;;;;;1.63;0.90;;;19.20;59.30;;;;;;4116825;28;20050;-49
2022/09/14 12:11:09;;;;;;;1.33;0.95;;;19.20;59.10;;;;;;4116506;28;20231;-44
2022/09/14 12:13:32;;;;;;;0.73;0.63;;;19.20;59.20;;;;;;4117876;28;20030;-39
2022/09/14 12:16:05;;;;;;;0.70;0.55;;;19.20;59.30;;;;;;4115351;28;20425;-41
2022/09/14 12:18:27;;;;;;;4.43;0.98;;;19.20;59.40;;;;;;4102653;28;20037;-40
2022/09/14 12:21:16;;;;;;;2.67;0.90;;;19.20;59.40;;;;;;4118463;28;20080;-42
2022/09/14 12:23:39;;;;;;;4.45;1.00;;;19.20;59.30;;;;;;4117147;28;20057;-39
2022/09/14 12:26:11;;;;;;;7.72;1.60;;;19.20;59.60;;;;;;4116897;28;20128;-41
2022/09/14 12:28:37;;;;;;;17.90;1.48;;;19.20;59.80;;;;;;4111628;28;20102;-43
2022/09/14 12:31:01;;;;;;;2.20;1.10;;;19.20;59.80;;;;;;4116789;28;20497;-40
2022/09/14 12:33:33;;;;;;;5.25;1.77;;;19.20;59.80;;;;;;4119460;28;20117;-42
2022/09/14 12:35:55;;;;;;;3.97;0.98;;;19.20;59.80;;;;;;4115551;28;20602;-43
2022/09/14 12:38:52;;;;;;;3.05;1.00;;;19.20;59.70;;;;;;4111158;28;20156;-44
2022/09/14 12:41:15;;;;;;;3.30;1.35;;;19.20;59.90;;;;;;4115797;28;20890;-48
2022/09/14 12:43:41;;;;;;;2.58;1.05;;;19.20;60.00;;;;;;4115573;28;20108;-47
2022/09/14 12:46:22;;;;;;;8.00;0.95;;;19.10;59.90;;;;;;4112211;28;20038;-47
2022/09/14 12:48:47;;;;;;;4.13;0.80;;;19.10;59.80;;;;;;4115991;28;20406;-49
2022/09/14 12:51:22;;;;;;;2.53;1.35;;;19.10;59.90;;;;;;4113529;28;20105;-41
2022/09/14 12:53:47;;;;;;;2.47;0.88;;;19.10;59.80;;;;;;4116084;28;20465;-46
2022/09/14 12:56:26;;;;;;;1.58;0.98;;;19.20;59.90;;;;;;4118914;28;20034;-44
2022/09/14 12:59:19;;;;;;;1.38;0.80;;;19.20;59.90;;;;;;4116281;28;20785;-45
2022/09/14 13:02:09;;;;;;;3.00;1.10;;;19.10;59.70;;;;;;4131907;28;20144;-42
2022/09/14 13:04:37;;;;;;;3.65;1.20;;;19.10;59.90;;;;;;4132819;28;20039;-43
2022/09/14 13:07:04;;;;;;;2.40;0.80;;;19.10;59.80;;;;;;4129371;28;20145;-44
2022/09/14 13:09:29;;;;;;;1.83;0.80;;;19.10;59.70;;;;;;4135020;28;20044;-44
2022/09/14 13:12:08;;;;;;;2.88;1.10;;;19.10;60.40;;;;;;4132496;28;20100;-42
2022/09/14 13:14:54;;;;;;;3.10;1.48;;;19.10;60.00;;;;;;4131745;28;20038;-42
2022/09/14 13:17:18;;;;;;;1.92;1.10;;;19.10;59.80;;;;;;4131744;28;20157;-43
2022/09/14 13:19:41;;;;;;;2.30;1.10;;;19.10;60.10;;;;;;4130888;28;20034;-42
2022/09/14 13:22:18;;;;;;;1.55;1.00;;;19.00;59.90;;;;;;4134142;28;20081;-44
2022/09/14 13:24:45;;;;;;;6.05;1.17;;;19.00;60.40;;;;;;4131471;28;20113;-45
2022/09/14 13:27:27;;;;;;;5.45;1.35;;;19.00;59.90;;;;;;4133543;28;20054;-46
2022/09/14 13:30:18;;;;;;;4.90;1.08;;;19.00;60.00;;;;;;4132423;28;20038;-41
2022/09/14 13:32:45;;;;;;;2.47;1.15;;;19.00;60.00;;;;;;4131373;28;20108;-45
2022/09/14 13:35:17;;;;;;;3.53;1.35;;;19.00;60.00;;;;;;4134589;28;20042;-45
2022/09/14 13:37:40;;;;;;;2.38;1.13;;;19.00;60.10;;;;;;4131429;28;20044;-43
2022/09/14 13:40:07;;;;;;;3.63;1.58;;;19.00;60.10;;;;;;4132582;28;20045;-43
2022/09/14 13:42:29;;;;;;;1.35;0.80;;;19.00;60.10;;;;;;4129418;28;20042;-43
2022/09/14 13:44:52;;;;;;;2.03;1.17;;;19.00;60.00;;;;;;4133870;28;20671;-44
2022/09/14 13:47:21;;;;;;;4.47;1.58;;;19.00;60.10;;;;;;4128780;28;20069;-44
2022/09/14 13:49:46;;;;;;;2.80;1.23;;;18.90;60.10;;;;;;4129509;28;20048;-46
2022/09/14 13:52:24;;;;;;;2.95;1.05;;;18.90;60.10;;;;;;4129495;28;20069;-45
2022/09/14 13:54:48;;;;;;;8.32;1.52;;;18.90;60.10;;;;;;4132365;28;20061;-44
2022/09/14 13:57:19;;;;;;;3.70;1.08;;;18.90;60.10;;;;;;4128759;28;20049;-41